^^
TXWeather Station Historical Data
Daily Summary for April 26, 2022 Units:  English    Metric   Both
Daily Weekly Monthly Yearly Custom
  High: Low: Average:
Temperature: 80.0 °F 61.0 °F 69.3 °F
Dew Point: 64.0 °F 56.0 °F 60.7 °F
Humidity: 93% 55% 76%
Wind Speed: 16mph 0mph 6.5mph
Wind Gust: 16mph - -
Wind- - NE
Pressure: 30.3 in 30.2 in -
Precipitation: 0.140 in    
Historical Graphs
 
 
Tabular Data for April 26, 2022
Time Temperature Dew Point Pressure Wind Wind Speed Wind Gust Humidity Rainfall Rate (Hourly) solar
00:04 63.0 °F 61.0 °F 30.2 in NNE 4 mph 5 mph 92% 0.010 in 0.00 W/m2
00:09 63.0 °F 61.0 °F 30.2 in North 3 mph 5 mph 92% 0.010 in 0.00 W/m2
00:14 63.0 °F 61.0 °F 30.2 in NNE 4 mph 4 mph 92% 0.010 in 0.00 W/m2
00:19 63.0 °F 61.0 °F 30.2 in North 4 mph 5 mph 92% 0.010 in 0.00 W/m2
00:24 63.0 °F 61.0 °F 30.2 in NNE 5 mph 7 mph 92% 0.010 in 0.00 W/m2
00:29 63.0 °F 60.0 °F 30.2 in NNE 4 mph 4 mph 92% 0.010 in 0.00 W/m2
00:34 63.0 °F 60.0 °F 30.2 in North 2 mph 4 mph 92% 0.010 in 0.00 W/m2
00:39 63.0 °F 60.0 °F 30.2 in North 3 mph 3 mph 92% 0.010 in 0.00 W/m2
00:44 63.0 °F 60.0 °F 30.2 in North 4 mph 4 mph 92% 0.010 in 0.00 W/m2
00:49 63.0 °F 60.0 °F 30.2 in NNE 3 mph 4 mph 92% 0.000 in 0.00 W/m2
00:54 63.0 °F 60.0 °F 30.2 in NNE 4 mph 4 mph 92% 0.010 in 0.00 W/m2
00:59 62.0 °F 60.0 °F 30.2 in North 4 mph 4 mph 92% 0.010 in 0.00 W/m2
01:04 62.0 °F 60.0 °F 30.2 in NNE 3 mph 3 mph 92% 0.010 in 0.00 W/m2
01:09 62.0 °F 60.0 °F 30.2 in North 3 mph 3 mph 92% 0.010 in 0.00 W/m2
01:14 62.0 °F 60.0 °F 30.2 in NNE 3 mph 3 mph 92% 0.010 in 0.00 W/m2
01:19 62.0 °F 60.0 °F 30.2 in NNE 2 mph 2 mph 92% 0.010 in 0.00 W/m2
01:24 62.0 °F 60.0 °F 30.2 in NNE 2 mph 2 mph 92% 0.010 in 0.00 W/m2
01:29 62.0 °F 60.0 °F 30.2 in NNE 1 mph 2 mph 92% 0.010 in 0.00 W/m2
01:34 62.0 °F 60.0 °F 30.2 in Calm   1 mph 92% 0.010 in 0.00 W/m2
01:39 62.0 °F 60.0 °F 30.2 in NNE 1 mph 2 mph 92% 0.010 in 0.00 W/m2
01:44 62.0 °F 60.0 °F 30.2 in NNE 2 mph 2 mph 92% 0.010 in 0.00 W/m2
01:49 62.0 °F 60.0 °F 30.2 in NNE 1 mph 2 mph 92% 0.010 in 0.00 W/m2
01:54 62.0 °F 60.0 °F 30.2 in NNE 1 mph 1 mph 92% 0.010 in 0.00 W/m2
01:59 62.0 °F 59.0 °F 30.2 in Calm   1 mph 92% 0.000 in 0.00 W/m2
02:04 62.0 °F 59.0 °F 30.2 in Calm     92% 0.000 in 0.00 W/m2
02:09 62.0 °F 59.0 °F 30.2 in Calm     92% 0.010 in 0.00 W/m2
02:14 62.0 °F 59.0 °F 30.2 in Calm     92% 0.010 in 0.00 W/m2
02:19 61.0 °F 59.0 °F 30.2 in Calm     92% 0.010 in 0.00 W/m2
02:24 61.0 °F 59.0 °F 30.2 in Calm     92% 0.010 in 0.00 W/m2
02:29 61.0 °F 59.0 °F 30.2 in Calm     92% 0.010 in 0.00 W/m2
02:34 61.0 °F 59.0 °F 30.2 in Calm     92% 0.010 in 0.00 W/m2
02:39 61.0 °F 59.0 °F 30.2 in NNE 2 mph 2 mph 92% 0.010 in 0.00 W/m2
02:44 61.0 °F 59.0 °F 30.2 in NNE 1 mph 2 mph 92% 0.010 in 0.00 W/m2
02:49 61.0 °F 59.0 °F 30.2 in NNE 1 mph 1 mph 92% 0.010 in 0.00 W/m2
02:54 61.0 °F 59.0 °F 30.2 in NNE 2 mph 2 mph 92% 0.010 in 0.00 W/m2
02:59 61.0 °F 59.0 °F 30.2 in NNE 4 mph 4 mph 92% 0.010 in 0.00 W/m2
03:04 62.0 °F 59.0 °F 30.2 in NNE 4 mph 4 mph 92% 0.010 in 0.00 W/m2
03:09 62.0 °F 59.0 °F 30.2 in NNE 3 mph 4 mph 92% 0.010 in 0.00 W/m2
03:19 62.0 °F 60.0 °F 30.2 in NNE 4 mph 4 mph 92% 0.000 in 0.00 W/m2
03:24 62.0 °F 60.0 °F 30.2 in NNE 4 mph 4 mph 92% 0.000 in 0.00 W/m2
03:29 62.0 °F 60.0 °F 30.2 in NNE 3 mph 4 mph 92% 0.000 in 0.00 W/m2
03:34 62.0 °F 60.0 °F 30.2 in North 4 mph 4 mph 92% 0.000 in 0.00 W/m2
03:39 62.0 °F 60.0 °F 30.2 in North 5 mph 6 mph 92% 0.000 in 0.00 W/m2
03:44 62.0 °F 60.0 °F 30.2 in North 5 mph 8 mph 92% 0.000 in 0.00 W/m2
03:49 62.0 °F 60.0 °F 30.2 in North 4 mph 5 mph 92% 0.010 in 0.00 W/m2
03:54 62.0 °F 60.0 °F 30.2 in North 6 mph 6 mph 92% 0.010 in 0.00 W/m2
03:59 62.0 °F 60.0 °F 30.2 in North 8 mph 8 mph 92% 0.010 in 0.00 W/m2
04:04 62.0 °F 60.0 °F 30.2 in NNE 5 mph 6 mph 92% 0.010 in 0.00 W/m2
04:09 62.0 °F 60.0 °F 30.2 in North 6 mph 6 mph 92% 0.010 in 0.00 W/m2
04:14 62.0 °F 60.0 °F 30.2 in NNE 9 mph 9 mph 92% 0.010 in 0.00 W/m2
04:19 62.0 °F 60.0 °F 30.2 in NNE 8 mph 9 mph 92% 0.010 in 0.00 W/m2
04:24 62.0 °F 60.0 °F 30.2 in North 7 mph 8 mph 92% 0.010 in 0.00 W/m2
04:29 62.0 °F 60.0 °F 30.2 in NNE 4 mph 5 mph 92% 0.010 in 0.00 W/m2
04:34 62.0 °F 60.0 °F 30.2 in NNE 5 mph 5 mph 92% 0.010 in 0.00 W/m2
04:39 62.0 °F 60.0 °F 30.2 in NNE 5 mph 5 mph 92% 0.010 in 0.00 W/m2
04:44 62.0 °F 60.0 °F 30.3 in NNE 7 mph 7 mph 92% 0.010 in 0.00 W/m2
04:49 62.0 °F 60.0 °F 30.3 in NNE 7 mph 7 mph 92% 0.010 in 0.00 W/m2
04:54 62.0 °F 60.0 °F 30.3 in NNE 8 mph 8 mph 92% 0.000 in 0.00 W/m2
04:59 62.0 °F 60.0 °F 30.3 in NNE 9 mph 9 mph 92% 0.000 in 0.00 W/m2
05:04 62.0 °F 60.0 °F 30.3 in NNE 11 mph 11 mph 92% 0.000 in 0.00 W/m2
05:09 62.0 °F 60.0 °F 30.3 in NNE 7 mph 11 mph 92% 0.000 in 0.00 W/m2
05:14 63.0 °F 60.0 °F 30.3 in NNE 7 mph 8 mph 92% 0.010 in 0.00 W/m2
05:19 63.0 °F 60.0 °F 30.3 in NNE 9 mph 9 mph 92% 0.010 in 0.00 W/m2
05:24 63.0 °F 60.0 °F 30.3 in NNE 5 mph 5 mph 92% 0.010 in 0.00 W/m2
05:29 63.0 °F 60.0 °F 30.3 in NNE 6 mph 6 mph 92% 0.010 in 0.00 W/m2
05:34 63.0 °F 60.0 °F 30.3 in NNE 5 mph 5 mph 92% 0.010 in 0.00 W/m2
05:39 63.0 °F 60.0 °F 30.3 in NNE 6 mph 6 mph 92% 0.010 in 0.00 W/m2
05:44 63.0 °F 60.0 °F 30.3 in NNE 4 mph 4 mph 92% 0.010 in 0.00 W/m2
05:49 63.0 °F 61.0 °F 30.3 in NNE 7 mph 7 mph 92% 0.010 in 0.00 W/m2
05:54 63.0 °F 61.0 °F 30.3 in NNE 6 mph 7 mph 92% 0.010 in 0.00 W/m2
05:59 63.0 °F 61.0 °F 30.3 in NNE 7 mph 8 mph 92% 0.010 in 0.00 W/m2
06:04 63.0 °F 61.0 °F 30.3 in North 8 mph 8 mph 92% 0.010 in 0.00 W/m2
06:09 63.0 °F 61.0 °F 30.3 in NNE 5 mph 6 mph 93% 0.010 in 0.00 W/m2
06:14 63.0 °F 61.0 °F 30.3 in NNE 6 mph 6 mph 92% 0.010 in 0.00 W/m2
06:19 63.0 °F 61.0 °F 30.3 in North 6 mph 6 mph 93% 0.000 in 0.00 W/m2
06:24 63.0 °F 61.0 °F 30.3 in NNE 5 mph 6 mph 93% 0.000 in 0.00 W/m2
06:29 63.0 °F 61.0 °F 30.3 in NNE 9 mph 9 mph 93% 0.000 in 0.00 W/m2
06:34 63.0 °F 61.0 °F 30.3 in NNE 6 mph 8 mph 93% 0.000 in 0.00 W/m2
06:39 63.0 °F 61.0 °F 30.3 in NNE 7 mph 8 mph 93% 0.000 in 0.00 W/m2
06:44 63.0 °F 61.0 °F 30.3 in NNE 6 mph 9 mph 93% 0.000 in 0.00 W/m2
06:49 63.0 °F 61.0 °F 30.3 in NNE 7 mph 7 mph 93% 0.000 in 0.00 W/m2
06:54 63.0 °F 61.0 °F 30.3 in NNE 9 mph 9 mph 93% 0.000 in 0.00 W/m2
06:59 63.0 °F 61.0 °F 30.3 in North 9 mph 10 mph 93% 0.000 in 0.00 W/m2
07:04 63.0 °F 61.0 °F 30.3 in North 9 mph 10 mph 92% 0.000 in 0.00 W/m2
07:09 63.0 °F 61.0 °F 30.3 in NNE 9 mph 10 mph 92% 0.000 in 5.00 W/m2
07:14 63.0 °F 61.0 °F 30.3 in North 10 mph 10 mph 92% 0.000 in 7.00 W/m2
07:19 63.0 °F 61.0 °F 30.3 in NNE 8 mph 10 mph 92% 0.000 in 11.00 W/m2
07:24 63.0 °F 61.0 °F 30.3 in North 9 mph 9 mph 92% 0.000 in 21.00 W/m2
07:29 63.0 °F 61.0 °F 30.3 in NNE 10 mph 11 mph 92% 0.010 in 33.00 W/m2
07:34 63.0 °F 61.0 °F 30.3 in North 10 mph 12 mph 92% 0.010 in 42.00 W/m2
07:39 64.0 °F 61.0 °F 30.3 in NNE 10 mph 12 mph 92% 0.010 in 42.00 W/m2
07:44 64.0 °F 61.0 °F 30.3 in NNE 8 mph 10 mph 92% 0.010 in 44.00 W/m2
07:49 64.0 °F 61.0 °F 30.3 in NNE 9 mph 9 mph 92% 0.010 in 47.00 W/m2
07:54 64.0 °F 61.0 °F 30.3 in NNE 11 mph 13 mph 92% 0.010 in 60.00 W/m2
07:59 64.0 °F 61.0 °F 30.3 in NNE 9 mph 9 mph 92% 0.010 in 60.00 W/m2
08:04 64.0 °F 61.0 °F 30.3 in NNE 9 mph 10 mph 92% 0.010 in 76.00 W/m2
08:09 64.0 °F 61.0 °F 30.3 in North 8 mph 10 mph 92% 0.010 in 76.00 W/m2
08:14 64.0 °F 62.0 °F 30.3 in NNE 10 mph 10 mph 92% 0.010 in 74.00 W/m2
08:19 64.0 °F 61.0 °F 30.3 in North 10 mph 11 mph 92% 0.010 in 76.00 W/m2
08:24 64.0 °F 62.0 °F 30.3 in NNE 8 mph 8 mph 92% 0.010 in 79.00 W/m2
08:29 64.0 °F 62.0 °F 30.3 in North 8 mph 9 mph 92% 0.010 in 107.00 W/m2
08:34 64.0 °F 62.0 °F 30.3 in NNE 11 mph 11 mph 92% 0.000 in 116.00 W/m2
08:39 64.0 °F 62.0 °F 30.3 in North 9 mph 12 mph 92% 0.000 in 104.00 W/m2
08:44 64.0 °F 62.0 °F 30.3 in NNE 12 mph 12 mph 92% 0.000 in 98.00 W/m2
08:49 64.0 °F 61.0 °F 30.3 in North 9 mph 12 mph 91% 0.000 in 113.00 W/m2
08:54 64.0 °F 61.0 °F 30.3 in NNE 11 mph 12 mph 91% 0.000 in 132.00 W/m2
08:59 64.0 °F 61.0 °F 30.3 in NNE 12 mph 16 mph 91% 0.000 in 135.00 W/m2
09:04 64.0 °F 61.0 °F 30.3 in NNE 11 mph 16 mph 91% 0.000 in 132.00 W/m2
09:09 64.0 °F 61.0 °F 30.3 in North 10 mph 12 mph 90% 0.010 in 130.00 W/m2
09:14 64.0 °F 61.0 °F 30.3 in NNE 11 mph 11 mph 90% 0.010 in 199.00 W/m2
09:19 64.0 °F 61.0 °F 30.3 in NNE 12 mph 12 mph 90% 0.010 in 207.00 W/m2
09:29 64.0 °F 61.0 °F 30.3 in NNE 9 mph 9 mph 89% 0.010 in 214.00 W/m2
09:34 64.0 °F 61.0 °F 30.3 in NNE 10 mph 14 mph 88% 0.010 in 207.00 W/m2
09:39 64.0 °F 60.0 °F 30.3 in NNE 9 mph 10 mph 87% 0.010 in 188.00 W/m2
09:44 65.0 °F 60.0 °F 30.3 in NE 7 mph 8 mph 86% 0.010 in 236.00 W/m2
09:49 65.0 °F 60.0 °F 30.3 in NNE 9 mph 10 mph 85% 0.010 in 299.00 W/m2
09:54 65.0 °F 60.0 °F 30.3 in NE 10 mph 10 mph 84% 0.010 in 318.00 W/m2
09:59 66.0 °F 60.0 °F 30.3 in ENE 10 mph 10 mph 83% 0.010 in 318.00 W/m2
10:04 66.0 °F 60.0 °F 30.3 in ENE 8 mph 10 mph 82% 0.010 in 294.00 W/m2
10:09 66.0 °F 60.0 °F 30.3 in NNE 9 mph 10 mph 81% 0.010 in 267.00 W/m2
10:14 67.0 °F 60.0 °F 30.3 in NNE 11 mph 15 mph 80% 0.000 in 248.00 W/m2
10:19 67.0 °F 60.0 °F 30.3 in NNE 10 mph 10 mph 78% 0.000 in 369.00 W/m2
10:24 67.0 °F 60.0 °F 30.3 in ENE 6 mph 11 mph 78% 0.000 in 476.00 W/m2
10:29 67.0 °F 60.0 °F 30.3 in North 5 mph 9 mph 78% 0.010 in 301.00 W/m2
10:34 68.0 °F 60.0 °F 30.3 in NNE 12 mph 14 mph 77% 0.010 in 287.00 W/m2
10:39 68.0 °F 60.0 °F 30.3 in NNE 10 mph 14 mph 76% 0.010 in 304.00 W/m2
10:44 68.0 °F 60.0 °F 30.3 in NNE 7 mph 10 mph 76% 0.010 in 362.00 W/m2
10:49 68.0 °F 60.0 °F 30.3 in NNE 11 mph 13 mph 76% 0.010 in 352.00 W/m2
10:54 68.0 °F 60.0 °F 30.3 in NNE 9 mph 13 mph 76% 0.010 in 408.00 W/m2
10:59 68.0 °F 60.0 °F 30.3 in NNE 11 mph 11 mph 75% 0.010 in 420.00 W/m2
11:04 69.0 °F 60.0 °F 30.3 in North 11 mph 14 mph 75% 0.010 in 519.00 W/m2
11:09 69.0 °F 60.0 °F 30.3 in NNE 13 mph 13 mph 74% 0.010 in 640.00 W/m2
11:14 69.0 °F 60.0 °F 30.3 in NNE 8 mph 9 mph 74% 0.010 in 640.00 W/m2
11:19 69.0 °F 60.0 °F 30.3 in NNE 11 mph 11 mph 73% 0.010 in 898.00 W/m2
11:24 70.0 °F 60.0 °F 30.3 in NNE 12 mph 12 mph 72% 0.010 in 1004.00 W/m2
11:29 70.0 °F 61.0 °F 30.3 in NNE 11 mph 12 mph 72% 0.010 in 1004.00 W/m2
11:34 70.0 °F 61.0 °F 30.3 in NE 9 mph 9 mph 72% 0.000 in 501.00 W/m2
11:39 71.0 °F 61.0 °F 30.3 in East 9 mph 9 mph 70% 0.000 in 974.00 W/m2
11:44 71.0 °F 61.0 °F 30.3 in NE 14 mph 15 mph 70% 0.000 in 1002.00 W/m2
11:49 72.0 °F 61.0 °F 30.3 in NNE 9 mph 12 mph 69% 0.010 in 1002.00 W/m2
11:54 72.0 °F 61.0 °F 30.3 in ENE 9 mph 12 mph 68% 0.010 in 928.00 W/m2
11:59 72.0 °F 61.0 °F 30.3 in ENE 11 mph 14 mph 68% 0.010 in 1055.00 W/m2
12:04 73.0 °F 62.0 °F 30.3 in NNE 12 mph 12 mph 68% 0.010 in 918.00 W/m2
12:09 73.0 °F 62.0 °F 30.3 in East 5 mph 7 mph 68% 0.010 in 1014.00 W/m2
12:14 73.0 °F 62.0 °F 30.3 in NNE 7 mph 10 mph 68% 0.010 in 991.00 W/m2
12:19 74.0 °F 62.0 °F 30.3 in NNE 10 mph 11 mph 66% 0.010 in 1067.00 W/m2
12:24 74.0 °F 62.0 °F 30.3 in North 13 mph 13 mph 66% 0.010 in 1090.00 W/m2
12:29 75.0 °F 62.0 °F 30.3 in NE 12 mph 12 mph 65% 0.010 in 1151.00 W/m2
12:34 75.0 °F 61.0 °F 30.3 in NE 16 mph 16 mph 64% 0.010 in 1151.00 W/m2
12:39 74.0 °F 61.0 °F 30.3 in ENE 7 mph 16 mph 64% 0.010 in 733.00 W/m2
12:44 75.0 °F 62.0 °F 30.3 in NE 7 mph 11 mph 65% 0.010 in 1046.00 W/m2
12:49 76.0 °F 63.0 °F 30.3 in NNE 10 mph 12 mph 65% 0.010 in 1322.00 W/m2
12:54 76.0 °F 62.0 °F 30.3 in NNE 11 mph 12 mph 63% 0.000 in 846.00 W/m2
12:59 76.0 °F 62.0 °F 30.3 in NNE 8 mph 12 mph 63% 0.000 in 649.00 W/m2
13:04 75.0 °F 63.0 °F 30.3 in North 10 mph 12 mph 66% 0.010 in 587.00 W/m2
13:09 75.0 °F 63.0 °F 30.3 in North 10 mph 10 mph 66% 0.010 in 645.00 W/m2
13:14 75.0 °F 63.0 °F 30.3 in NNE 9 mph 10 mph 66% 0.010 in 529.00 W/m2
13:19 75.0 °F 62.0 °F 30.3 in NNE 8 mph 8 mph 65% 0.010 in 587.00 W/m2
13:24 75.0 °F 63.0 °F 30.3 in NNE 6 mph 8 mph 66% 0.010 in 715.00 W/m2
13:29 76.0 °F 63.0 °F 30.3 in NE 8 mph 8 mph 65% 0.010 in 715.00 W/m2
13:34 76.0 °F 63.0 °F 30.3 in NNE 9 mph 9 mph 64% 0.010 in 531.00 W/m2
13:39 75.0 °F 62.0 °F 30.3 in North 6 mph 9 mph 64% 0.010 in 452.00 W/m2
13:44 76.0 °F 63.0 °F 30.3 in NNE 10 mph 11 mph 64% 0.010 in 441.00 W/m2
13:49 76.0 °F 62.0 °F 30.3 in NNE 10 mph 11 mph 62% 0.010 in 475.00 W/m2
13:54 75.0 °F 62.0 °F 30.3 in North 9 mph 9 mph 63% 0.010 in 455.00 W/m2
13:59 75.0 °F 62.0 °F 30.3 in NNE 10 mph 11 mph 63% 0.010 in 550.00 W/m2
14:04 75.0 °F 62.0 °F 30.3 in NNE 10 mph 10 mph 64% 0.010 in 740.00 W/m2
14:09 76.0 °F 63.0 °F 30.3 in NNE 7 mph 10 mph 65% 0.000 in 798.00 W/m2
14:14 76.0 °F 63.0 °F 30.3 in NNE 10 mph 10 mph 64% 0.000 in 642.00 W/m2
14:19 76.0 °F 63.0 °F 30.3 in North 11 mph 12 mph 64% 0.000 in 617.00 W/m2
14:24 77.0 °F 64.0 °F 30.3 in NNE 9 mph 9 mph 65% 0.000 in 939.00 W/m2
14:29 77.0 °F 64.0 °F 30.3 in NNE 13 mph 13 mph 65% 0.000 in 737.00 W/m2
14:34 77.0 °F 64.0 °F 30.3 in North 11 mph 13 mph 65% 0.000 in 1092.00 W/m2
14:39 77.0 °F 64.0 °F 30.3 in North 10 mph 12 mph 63% 0.010 in 1158.00 W/m2
14:44 77.0 °F 64.0 °F 30.3 in NNE 9 mph 10 mph 64% 0.010 in 1065.00 W/m2
14:49 78.0 °F 64.0 °F 30.3 in NNE 10 mph 10 mph 64% 0.010 in 1083.00 W/m2
14:54 78.0 °F 63.0 °F 30.3 in NNE 10 mph 10 mph 62% 0.010 in 1083.00 W/m2
14:59 77.0 °F 64.0 °F 30.3 in NNE 10 mph 12 mph 65% 0.010 in 346.00 W/m2
15:04 77.0 °F 64.0 °F 30.3 in NNE 8 mph 9 mph 65% 0.010 in 346.00 W/m2
15:09 77.0 °F 63.0 °F 30.3 in NNE 10 mph 11 mph 62% 0.010 in 1025.00 W/m2
15:14 77.0 °F 63.0 °F 30.3 in NNE 11 mph 11 mph 62% 0.010 in 932.00 W/m2
15:19 77.0 °F 63.0 °F 30.3 in NNE 10 mph 11 mph 61% 0.010 in 979.00 W/m2
15:24 78.0 °F 64.0 °F 30.3 in NNE 13 mph 13 mph 62% 0.010 in 977.00 W/m2
15:29 78.0 °F 64.0 °F 30.3 in NNE 10 mph 13 mph 61% 0.010 in 977.00 W/m2
15:34 78.0 °F 63.0 °F 30.3 in NNE 11 mph 12 mph 61% 0.010 in 933.00 W/m2
15:39 78.0 °F 64.0 °F 30.3 in NNE 11 mph 12 mph 61% 0.010 in 684.00 W/m2
15:44 78.0 °F 63.0 °F 30.3 in NE 11 mph 11 mph 61% 0.000 in 353.00 W/m2
15:49 78.0 °F 63.0 °F 30.3 in NNE 11 mph 12 mph 60% 0.000 in 445.00 W/m2
15:54 77.0 °F 63.0 °F 30.3 in NNE 10 mph 11 mph 61% 0.000 in 244.00 W/m2
15:59 77.0 °F 63.0 °F 30.3 in NNE 11 mph 11 mph 61% 0.010 in 241.00 W/m2
16:04 77.0 °F 62.0 °F 30.3 in North 9 mph 10 mph 60% 0.010 in 220.00 W/m2
16:09 77.0 °F 62.0 °F 30.3 in North 6 mph 10 mph 61% 0.010 in 244.00 W/m2
16:14 77.0 °F 62.0 °F 30.3 in North 9 mph 9 mph 61% 0.010 in 237.00 W/m2
16:19 77.0 °F 62.0 °F 30.3 in NNE 11 mph 11 mph 61% 0.010 in 171.00 W/m2
16:24 77.0 °F 62.0 °F 30.3 in NNE 8 mph 11 mph 61% 0.010 in 206.00 W/m2
16:29 77.0 °F 62.0 °F 30.3 in NNE 8 mph 8 mph 62% 0.010 in 241.00 W/m2
16:34 77.0 °F 62.0 °F 30.3 in North 10 mph 10 mph 62% 0.010 in 297.00 W/m2
16:39 77.0 °F 63.0 °F 30.3 in NNE 5 mph 6 mph 62% 0.010 in 378.00 W/m2
16:44 77.0 °F 62.0 °F 30.3 in North 8 mph 8 mph 61% 0.010 in 274.00 W/m2
16:49 77.0 °F 63.0 °F 30.3 in North 8 mph 9 mph 61% 0.010 in 272.00 W/m2
16:54 77.0 °F 63.0 °F 30.3 in North 6 mph 8 mph 61% 0.010 in 271.00 W/m2
16:59 78.0 °F 63.0 °F 30.3 in North 6 mph 8 mph 61% 0.010 in 436.00 W/m2
17:04 78.0 °F 63.0 °F 30.3 in North 9 mph 10 mph 61% 0.000 in 436.00 W/m2
17:09 78.0 °F 63.0 °F 30.3 in NNE 7 mph 9 mph 60% 0.000 in 287.00 W/m2
17:14 78.0 °F 63.0 °F 30.3 in ENE 4 mph 7 mph 60% 0.000 in 318.00 W/m2
17:19 78.0 °F 63.0 °F 30.3 in ENE 8 mph 8 mph 60% 0.000 in 689.00 W/m2
17:24 79.0 °F 63.0 °F 30.2 in ENE 7 mph 8 mph 60% 0.000 in 738.00 W/m2
17:29 79.0 °F 63.0 °F 30.2 in ENE 7 mph 7 mph 57% 0.000 in 610.00 W/m2
17:34 79.0 °F 62.0 °F 30.2 in ENE 5 mph 5 mph 56% 0.000 in 287.00 W/m2
17:39 79.0 °F 63.0 °F 30.2 in ENE 6 mph 8 mph 57% 0.000 in 564.00 W/m2
17:44 79.0 °F 63.0 °F 30.2 in NNE 6 mph 6 mph 57% 0.000 in 526.00 W/m2
17:49 80.0 °F 63.0 °F 30.2 in NE 6 mph 6 mph 57% 0.000 in 475.00 W/m2
17:53 79.0 °F 62.0 °F 30.2 in NNE 9 mph 9 mph 56% 0.000 in 227.00 W/m2
17:59 79.0 °F 62.0 °F 30.2 in NE 5 mph 5 mph 55% 0.000 in 97.00 W/m2
18:04 79.0 °F 62.0 °F 30.2 in NE 4 mph 4 mph 56% 0.000 in 255.00 W/m2
18:09 79.0 °F 62.0 °F 30.2 in NNE 8 mph 8 mph 57% 0.010 in 350.00 W/m2
18:14 79.0 °F 63.0 °F 30.2 in NNE 6 mph 6 mph 58% 0.010 in 346.00 W/m2
18:19 79.0 °F 63.0 °F 30.2 in NE 6 mph 7 mph 58% 0.010 in 287.00 W/m2
18:24 79.0 °F 62.0 °F 30.2 in NNE 9 mph 9 mph 57% 0.010 in 297.00 W/m2
18:29 79.0 °F 62.0 °F 30.2 in NNE 5 mph 9 mph 56% 0.010 in 283.00 W/m2
18:34 79.0 °F 62.0 °F 30.2 in North 8 mph 9 mph 56% 0.010 in 258.00 W/m2
18:39 79.0 °F 62.0 °F 30.2 in North 9 mph 10 mph 56% 0.010 in 232.00 W/m2
18:44 78.0 °F 62.0 °F 30.2 in NE 9 mph 9 mph 56% 0.010 in 214.00 W/m2
18:49 78.0 °F 62.0 °F 30.2 in NNE 6 mph 9 mph 56% 0.010 in 192.00 W/m2
18:54 78.0 °F 61.0 °F 30.2 in NNE 5 mph 10 mph 55% 0.010 in 169.00 W/m2
18:59 78.0 °F 61.0 °F 30.2 in NE 4 mph 5 mph 55% 0.010 in 54.00 W/m2
19:04 78.0 °F 60.0 °F 30.2 in NE 6 mph 6 mph 55% 0.010 in 46.00 W/m2
19:09 78.0 °F 61.0 °F 30.2 in ENE 6 mph 7 mph 56% 0.010 in 42.00 W/m2
19:14 77.0 °F 61.0 °F 30.2 in NE 4 mph 5 mph 57% 0.000 in 35.00 W/m2
19:19 77.0 °F 61.0 °F 30.2 in NE 3 mph 5 mph 57% 0.000 in 32.00 W/m2
19:24 77.0 °F 61.0 °F 30.2 in NNE 4 mph 4 mph 58% 0.000 in 28.00 W/m2
19:29 77.0 °F 61.0 °F 30.2 in NE 5 mph 6 mph 58% 0.000 in 26.00 W/m2
19:34 77.0 °F 61.0 °F 30.2 in ENE 2 mph 6 mph 58% 0.000 in 25.00 W/m2
19:39 76.0 °F 60.0 °F 30.2 in NE 4 mph 5 mph 58% 0.000 in 21.00 W/m2
19:44 76.0 °F 60.0 °F 30.2 in NE 4 mph 5 mph 58% 0.000 in 19.00 W/m2
19:49 76.0 °F 60.0 °F 30.2 in NE 4 mph 5 mph 58% 0.000 in 14.00 W/m2
19:54 76.0 °F 60.0 °F 30.2 in NNE 5 mph 5 mph 59% 0.000 in 9.00 W/m2
19:59 75.0 °F 60.0 °F 30.2 in NE 3 mph 4 mph 59% 0.000 in 5.00 W/m2
20:04 75.0 °F 60.0 °F 30.2 in NNE 5 mph 5 mph 60% 0.000 in 0.00 W/m2
20:09 75.0 °F 60.0 °F 30.2 in NNE 3 mph 3 mph 60% 0.000 in 0.00 W/m2
20:14 75.0 °F 60.0 °F 30.2 in NNE 2 mph 2 mph 60% 0.010 in 0.00 W/m2
20:19 75.0 °F 60.0 °F 30.2 in NNE 3 mph 3 mph 61% 0.010 in 0.00 W/m2
20:24 74.0 °F 60.0 °F 30.2 in NNE 2 mph 2 mph 61% 0.010 in 0.00 W/m2
20:29 74.0 °F 60.0 °F 30.2 in NNE 3 mph 3 mph 61% 0.010 in 0.00 W/m2
20:34 74.0 °F 60.0 °F 30.2 in NNE 1 mph 2 mph 62% 0.010 in 0.00 W/m2
20:39 74.0 °F 60.0 °F 30.2 in NNE 2 mph 2 mph 62% 0.010 in 0.00 W/m2
20:44 73.0 °F 60.0 °F 30.2 in NNE 2 mph 2 mph 63% 0.010 in 0.00 W/m2
20:49 73.0 °F 60.0 °F 30.2 in NNE 2 mph 2 mph 63% 0.010 in 0.00 W/m2
20:54 73.0 °F 60.0 °F 30.2 in NNE 1 mph 2 mph 64% 0.010 in 0.00 W/m2
20:59 73.0 °F 60.0 °F 30.2 in NNE 2 mph 2 mph 64% 0.010 in 0.00 W/m2
21:04 72.0 °F 60.0 °F 30.2 in NNE 2 mph 2 mph 65% 0.010 in 0.00 W/m2
21:09 72.0 °F 60.0 °F 30.2 in NNE 2 mph 2 mph 65% 0.010 in 0.00 W/m2
21:14 72.0 °F 60.0 °F 30.2 in NNE 2 mph 2 mph 66% 0.010 in 0.00 W/m2
21:19 72.0 °F 60.0 °F 30.2 in NNE 2 mph 3 mph 66% 0.000 in 0.00 W/m2
21:24 71.0 °F 60.0 °F 30.2 in NNE 2 mph 2 mph 67% 0.000 in 0.00 W/m2
21:29 71.0 °F 60.0 °F 30.3 in NE 1 mph 2 mph 67% 0.000 in 0.00 W/m2
21:34 71.0 °F 59.0 °F 30.3 in NE 1 mph 2 mph 67% 0.000 in 0.00 W/m2
21:39 71.0 °F 59.0 °F 30.3 in NE 2 mph 2 mph 67% 0.000 in 0.00 W/m2
21:44 71.0 °F 59.0 °F 30.3 in NE 2 mph 2 mph 68% 0.000 in 0.00 W/m2
21:49 70.0 °F 59.0 °F 30.3 in NE 1 mph 2 mph 68% 0.000 in 0.00 W/m2
21:54 70.0 °F 59.0 °F 30.3 in NE 2 mph 2 mph 68% 0.000 in 0.00 W/m2
21:59 70.0 °F 59.0 °F 30.3 in NE 2 mph 2 mph 68% 0.000 in 0.00 W/m2
22:04 70.0 °F 59.0 °F 30.3 in NE 3 mph 3 mph 69% 0.000 in 0.00 W/m2
22:09 69.0 °F 59.0 °F 30.3 in NE 2 mph 2 mph 69% 0.000 in 0.00 W/m2
22:14 69.0 °F 59.0 °F 30.3 in NNE 3 mph 3 mph 69% 0.000 in 0.00 W/m2
22:19 69.0 °F 59.0 °F 30.3 in NE 4 mph 4 mph 69% 0.000 in 0.00 W/m2
22:24 69.0 °F 58.0 °F 30.3 in NE 3 mph 3 mph 69% 0.000 in 0.00 W/m2
22:29 69.0 °F 58.0 °F 30.3 in NNE 4 mph 4 mph 69% 0.000 in 0.00 W/m2
22:34 69.0 °F 58.0 °F 30.3 in NE 3 mph 4 mph 69% 0.000 in 0.00 W/m2
22:39 68.0 °F 58.0 °F 30.3 in NE 5 mph 5 mph 69% 0.000 in 0.00 W/m2
22:44 68.0 °F 57.0 °F 30.3 in NE 4 mph 4 mph 68% 0.000 in 0.00 W/m2
22:49 68.0 °F 57.0 °F 30.3 in NE 3 mph 5 mph 68% 0.000 in 0.00 W/m2
22:54 68.0 °F 57.0 °F 30.3 in ENE 4 mph 6 mph 68% 0.000 in 0.00 W/m2
22:59 68.0 °F 57.0 °F 30.3 in NE 3 mph 3 mph 68% 0.000 in 0.00 W/m2
23:04 68.0 °F 57.0 °F 30.3 in NE 4 mph 4 mph 68% 0.000 in 0.00 W/m2
23:09 68.0 °F 57.0 °F 30.3 in NE 3 mph 4 mph 67% 0.000 in 0.00 W/m2
23:14 68.0 °F 57.0 °F 30.3 in NE 3 mph 3 mph 68% 0.000 in 0.00 W/m2
23:19 68.0 °F 57.0 °F 30.3 in NE 3 mph 4 mph 68% 0.000 in 0.00 W/m2
23:24 68.0 °F 57.0 °F 30.3 in NNE 5 mph 6 mph 68% 0.000 in 0.00 W/m2
23:29 68.0 °F 57.0 °F 30.3 in NNE 4 mph 6 mph 68% 0.010 in 0.00 W/m2
23:34 67.0 °F 56.0 °F 30.3 in NE 3 mph 3 mph 68% 0.010 in 0.00 W/m2
23:39 67.0 °F 56.0 °F 30.3 in NE 5 mph 6 mph 68% 0.010 in 0.00 W/m2
23:44 67.0 °F 56.0 °F 30.3 in ENE 5 mph 6 mph 68% 0.010 in 0.00 W/m2
23:49 67.0 °F 56.0 °F 30.3 in NE 4 mph 6 mph 69% 0.010 in 0.00 W/m2
23:54 67.0 °F 56.0 °F 30.3 in NNE 6 mph 6 mph 69% 0.010 in 0.00 W/m2
23:59 66.0 °F 56.0 °F 30.3 in NE 2 mph 5 mph 69% 0.010 in 0.00 W/m2
Villages of Bridgestone, Spring, TX USA
Compliments of Weather Underground - 4 mb